sensor_id;sensor_type;location;lat;lon;timestamp;temperature;humidity
22635;DHT22;11484;50.858;4.384;2022-08-19T00:01:18;22.60;99.90
22635;DHT22;11484;50.858;4.384;2022-08-19T00:03:44;22.60;99.90
22635;DHT22;11484;50.858;4.384;2022-08-19T00:06:11;22.50;99.90
22635;DHT22;11484;50.858;4.384;2022-08-19T00:08:37;22.50;99.90
22635;DHT22;11484;50.858;4.384;2022-08-19T00:11:03;22.40;99.90
22635;DHT22;11484;50.858;4.384;2022-08-19T00:13:29;22.30;99.90
22635;DHT22;11484;50.858;4.384;2022-08-19T00:15:55;22.20;99.90
22635;DHT22;11484;50.858;4.384;2022-08-19T00:18:21;22.10;99.90
22635;DHT22;11484;50.858;4.384;2022-08-19T00:20:47;22.10;99.90
22635;DHT22;11484;50.858;4.384;2022-08-19T00:23:13;22.10;99.90
22635;DHT22;11484;50.858;4.384;2022-08-19T00:25:41;22.10;99.90
22635;DHT22;11484;50.858;4.384;2022-08-19T00:28:07;22.10;99.90
22635;DHT22;11484;50.858;4.384;2022-08-19T00:30:33;22.20;99.90
22635;DHT22;11484;50.858;4.384;2022-08-19T00:33:00;22.20;99.90
22635;DHT22;11484;50.858;4.384;2022-08-19T00:35:27;22.10;99.90
22635;DHT22;11484;50.858;4.384;2022-08-19T00:37:53;22.10;99.90
22635;DHT22;11484;50.858;4.384;2022-08-19T00:40:20;22.10;99.90
22635;DHT22;11484;50.858;4.384;2022-08-19T00:42:46;22.10;99.90
22635;DHT22;11484;50.858;4.384;2022-08-19T00:45:15;22.20;99.90
22635;DHT22;11484;50.858;4.384;2022-08-19T00:47:43;22.20;99.90
22635;DHT22;11484;50.858;4.384;2022-08-19T00:50:14;22.20;99.90
22635;DHT22;11484;50.858;4.384;2022-08-19T00:52:46;22.20;99.90
22635;DHT22;11484;50.858;4.384;2022-08-19T00:55:16;22.20;99.90
22635;DHT22;11484;50.858;4.384;2022-08-19T00:57:48;22.20;99.90
22635;DHT22;11484;50.858;4.384;2022-08-19T01:00:18;22.20;99.90
22635;DHT22;11484;50.858;4.384;2022-08-19T01:02:44;22.20;99.90
22635;DHT22;11484;50.858;4.384;2022-08-19T01:05:14;22.20;99.90
22635;DHT22;11484;50.858;4.384;2022-08-19T01:07:48;22.10;99.90
22635;DHT22;11484;50.858;4.384;2022-08-19T01:10:20;22.10;99.90
22635;DHT22;11484;50.858;4.384;2022-08-19T01:12:47;22.10;99.90
22635;DHT22;11484;50.858;4.384;2022-08-19T01:15:17;22.10;99.90
22635;DHT22;11484;50.858;4.384;2022-08-19T01:17:44;22.00;99.90
22635;DHT22;11484;50.858;4.384;2022-08-19T01:20:13;21.90;99.90
22635;DHT22;11484;50.858;4.384;2022-08-19T01:22:46;21.90;99.90
22635;DHT22;11484;50.858;4.384;2022-08-19T01:25:14;21.90;99.90
22635;DHT22;11484;50.858;4.384;2022-08-19T01:27:47;21.90;99.90
22635;DHT22;11484;50.858;4.384;2022-08-19T01:30:16;21.80;99.90
22635;DHT22;11484;50.858;4.384;2022-08-19T01:32:43;21.80;99.90
22635;DHT22;11484;50.858;4.384;2022-08-19T01:35:11;21.80;99.90
22635;DHT22;11484;50.858;4.384;2022-08-19T01:37:48;21.80;99.90
22635;DHT22;11484;50.858;4.384;2022-08-19T01:40:17;21.70;99.90
22635;DHT22;11484;50.858;4.384;2022-08-19T01:42:48;21.60;99.90
22635;DHT22;11484;50.858;4.384;2022-08-19T01:45:17;21.60;99.90
22635;DHT22;11484;50.858;4.384;2022-08-19T01:47:43;21.60;99.90
22635;DHT22;11484;50.858;4.384;2022-08-19T01:50:12;21.60;99.90
22635;DHT22;11484;50.858;4.384;2022-08-19T01:52:40;21.60;99.90
22635;DHT22;11484;50.858;4.384;2022-08-19T01:55:09;21.40;99.90
22635;DHT22;11484;50.858;4.384;2022-08-19T01:57:36;21.40;99.90
22635;DHT22;11484;50.858;4.384;2022-08-19T02:00:07;21.40;99.90
22635;DHT22;11484;50.858;4.384;2022-08-19T02:02:33;21.40;99.90
22635;DHT22;11484;50.858;4.384;2022-08-19T02:04:59;21.30;99.90
22635;DHT22;11484;50.858;4.384;2022-08-19T02:07:26;21.30;99.90
22635;DHT22;11484;50.858;4.384;2022-08-19T02:09:54;21.30;99.90
22635;DHT22;11484;50.858;4.384;2022-08-19T02:12:21;21.30;99.90
22635;DHT22;11484;50.858;4.384;2022-08-19T02:14:47;21.20;99.90
22635;DHT22;11484;50.858;4.384;2022-08-19T02:17:13;21.20;99.90
22635;DHT22;11484;50.858;4.384;2022-08-19T02:19:38;21.20;99.90
22635;DHT22;11484;50.858;4.384;2022-08-19T02:22:04;21.10;99.90
22635;DHT22;11484;50.858;4.384;2022-08-19T02:24:30;21.00;99.90
22635;DHT22;11484;50.858;4.384;2022-08-19T02:26:56;20.90;99.90
22635;DHT22;11484;50.858;4.384;2022-08-19T02:29:22;21.00;99.90
22635;DHT22;11484;50.858;4.384;2022-08-19T02:31:48;20.90;99.90
22635;DHT22;11484;50.858;4.384;2022-08-19T02:34:14;20.90;99.90
22635;DHT22;11484;50.858;4.384;2022-08-19T02:36:39;20.90;99.90
22635;DHT22;11484;50.858;4.384;2022-08-19T02:39:05;20.90;99.90
22635;DHT22;11484;50.858;4.384;2022-08-19T02:41:32;20.80;99.90
22635;DHT22;11484;50.858;4.384;2022-08-19T02:44:01;20.80;99.90
22635;DHT22;11484;50.858;4.384;2022-08-19T02:46:29;20.70;99.90
22635;DHT22;11484;50.858;4.384;2022-08-19T02:49:06;20.70;99.90
22635;DHT22;11484;50.858;4.384;2022-08-19T02:51:38;20.70;99.90
22635;DHT22;11484;50.858;4.384;2022-08-19T02:54:07;20.60;99.90
22635;DHT22;11484;50.858;4.384;2022-08-19T02:56:37;20.60;99.90
22635;DHT22;11484;50.858;4.384;2022-08-19T02:59:04;20.60;99.90
22635;DHT22;11484;50.858;4.384;2022-08-19T03:01:34;20.60;99.90
22635;DHT22;11484;50.858;4.384;2022-08-19T03:04:03;20.50;99.90
22635;DHT22;11484;50.858;4.384;2022-08-19T03:06:29;20.50;99.90
22635;DHT22;11484;50.858;4.384;2022-08-19T03:08:55;20.50;99.90
22635;DHT22;11484;50.858;4.384;2022-08-19T03:11:25;20.50;99.90
22635;DHT22;11484;50.858;4.384;2022-08-19T03:13:52;20.50;99.90
22635;DHT22;11484;50.858;4.384;2022-08-19T03:16:21;20.50;99.90
22635;DHT22;11484;50.858;4.384;2022-08-19T03:18:47;20.50;99.90
22635;DHT22;11484;50.858;4.384;2022-08-19T03:21:25;20.50;99.90
22635;DHT22;11484;50.858;4.384;2022-08-19T03:23:54;20.40;99.90
22635;DHT22;11484;50.858;4.384;2022-08-19T03:26:20;20.40;99.90
22635;DHT22;11484;50.858;4.384;2022-08-19T03:28:46;20.40;99.90
22635;DHT22;11484;50.858;4.384;2022-08-19T03:31:19;20.40;99.90
22635;DHT22;11484;50.858;4.384;2022-08-19T03:33:45;20.30;99.90
22635;DHT22;11484;50.858;4.384;2022-08-19T03:36:21;20.30;99.90
22635;DHT22;11484;50.858;4.384;2022-08-19T03:38:50;20.20;99.90
22635;DHT22;11484;50.858;4.384;2022-08-19T03:41:29;20.10;99.90
22635;DHT22;11484;50.858;4.384;2022-08-19T03:43:56;20.10;99.90
22635;DHT22;11484;50.858;4.384;2022-08-19T03:46:25;20.00;99.90
22635;DHT22;11484;50.858;4.384;2022-08-19T03:48:53;20.00;99.90
22635;DHT22;11484;50.858;4.384;2022-08-19T03:51:27;20.10;99.90
22635;DHT22;11484;50.858;4.384;2022-08-19T03:53:54;20.00;99.90
22635;DHT22;11484;50.858;4.384;2022-08-19T03:56:20;20.00;99.90
22635;DHT22;11484;50.858;4.384;2022-08-19T03:58:46;20.00;99.90
22635;DHT22;11484;50.858;4.384;2022-08-19T04:01:15;20.00;99.90
22635;DHT22;11484;50.858;4.384;2022-08-19T04:03:42;20.00;99.90
22635;DHT22;11484;50.858;4.384;2022-08-19T04:06:12;19.90;99.90
22635;DHT22;11484;50.858;4.384;2022-08-19T04:08:39;19.90;99.90
22635;DHT22;11484;50.858;4.384;2022-08-19T04:11:12;19.90;99.90
22635;DHT22;11484;50.858;4.384;2022-08-19T04:13:38;19.90;99.90
22635;DHT22;11484;50.858;4.384;2022-08-19T04:16:05;19.80;99.90
22635;DHT22;11484;50.858;4.384;2022-08-19T04:18:33;19.80;99.90
22635;DHT22;11484;50.858;4.384;2022-08-19T04:20:59;19.80;99.90
22635;DHT22;11484;50.858;4.384;2022-08-19T04:23:25;19.80;99.90
22635;DHT22;11484;50.858;4.384;2022-08-19T04:25:52;19.70;99.90
22635;DHT22;11484;50.858;4.384;2022-08-19T04:28:18;19.60;99.90
22635;DHT22;11484;50.858;4.384;2022-08-19T04:30:52;19.60;99.90
22635;DHT22;11484;50.858;4.384;2022-08-19T04:33:22;19.60;99.90
22635;DHT22;11484;50.858;4.384;2022-08-19T04:35:50;19.60;99.90
22635;DHT22;11484;50.858;4.384;2022-08-19T04:38:19;19.50;99.90
22635;DHT22;11484;50.858;4.384;2022-08-19T04:40:47;19.50;99.90
22635;DHT22;11484;50.858;4.384;2022-08-19T04:43:33;19.50;99.90
22635;DHT22;11484;50.858;4.384;2022-08-19T04:46:08;19.50;99.90
22635;DHT22;11484;50.858;4.384;2022-08-19T04:48:35;19.50;99.90
22635;DHT22;11484;50.858;4.384;2022-08-19T04:51:06;19.50;99.90
22635;DHT22;11484;50.858;4.384;2022-08-19T04:53:35;19.40;99.90
22635;DHT22;11484;50.858;4.384;2022-08-19T04:56:05;19.50;99.90
22635;DHT22;11484;50.858;4.384;2022-08-19T04:58:33;19.50;99.90
22635;DHT22;11484;50.858;4.384;2022-08-19T05:00:59;19.50;99.90
22635;DHT22;11484;50.858;4.384;2022-08-19T05:03:28;19.50;99.90
22635;DHT22;11484;50.858;4.384;2022-08-19T05:06:07;19.50;99.90
22635;DHT22;11484;50.858;4.384;2022-08-19T05:08:34;19.50;99.90
22635;DHT22;11484;50.858;4.384;2022-08-19T05:11:06;19.60;99.90
22635;DHT22;11484;50.858;4.384;2022-08-19T05:13:32;19.60;99.90
22635;DHT22;11484;50.858;4.384;2022-08-19T05:15:58;19.60;99.90
22635;DHT22;11484;50.858;4.384;2022-08-19T05:18:26;19.60;99.90
22635;DHT22;11484;50.858;4.384;2022-08-19T05:21:25;19.70;99.90
22635;DHT22;11484;50.858;4.384;2022-08-19T05:24:10;19.70;99.90
22635;DHT22;11484;50.858;4.384;2022-08-19T05:26:38;19.70;99.90
22635;DHT22;11484;50.858;4.384;2022-08-19T05:29:06;19.60;99.90
22635;DHT22;11484;50.858;4.384;2022-08-19T05:31:33;19.70;99.90
22635;DHT22;11484;50.858;4.384;2022-08-19T05:33:59;19.70;99.90
22635;DHT22;11484;50.858;4.384;2022-08-19T05:36:32;19.70;99.90
22635;DHT22;11484;50.858;4.384;2022-08-19T05:39:00;19.80;99.90
22635;DHT22;11484;50.858;4.384;2022-08-19T05:41:26;19.80;99.90
22635;DHT22;11484;50.858;4.384;2022-08-19T05:44:02;19.90;99.90
22635;DHT22;11484;50.858;4.384;2022-08-19T05:46:28;20.00;99.90
22635;DHT22;11484;50.858;4.384;2022-08-19T05:48:54;20.10;99.90
22635;DHT22;11484;50.858;4.384;2022-08-19T05:51:22;20.20;99.90
22635;DHT22;11484;50.858;4.384;2022-08-19T05:53:49;20.30;99.90
22635;DHT22;11484;50.858;4.384;2022-08-19T05:56:21;20.50;99.90
22635;DHT22;11484;50.858;4.384;2022-08-19T05:58:47;20.50;99.90
22635;DHT22;11484;50.858;4.384;2022-08-19T06:01:15;20.60;99.90
22635;DHT22;11484;50.858;4.384;2022-08-19T06:03:42;20.70;99.90
22635;DHT22;11484;50.858;4.384;2022-08-19T06:06:11;20.80;99.90
22635;DHT22;11484;50.858;4.384;2022-08-19T06:08:38;20.90;99.90
22635;DHT22;11484;50.858;4.384;2022-08-19T06:11:24;20.90;99.90
22635;DHT22;11484;50.858;4.384;2022-08-19T06:13:53;21.00;99.90
22635;DHT22;11484;50.858;4.384;2022-08-19T06:16:23;21.10;99.90
22635;DHT22;11484;50.858;4.384;2022-08-19T06:19:11;21.20;99.90
22635;DHT22;11484;50.858;4.384;2022-08-19T06:21:39;21.20;99.90
22635;DHT22;11484;50.858;4.384;2022-08-19T06:24:08;21.20;99.90
22635;DHT22;11484;50.858;4.384;2022-08-19T06:26:35;21.30;99.90
22635;DHT22;11484;50.858;4.384;2022-08-19T06:29:04;21.40;99.90
22635;DHT22;11484;50.858;4.384;2022-08-19T06:31:33;21.50;99.90
22635;DHT22;11484;50.858;4.384;2022-08-19T06:34:04;21.50;99.90
22635;DHT22;11484;50.858;4.384;2022-08-19T06:36:33;21.60;99.90
22635;DHT22;11484;50.858;4.384;2022-08-19T06:39:11;21.80;99.90
22635;DHT22;11484;50.858;4.384;2022-08-19T06:41:41;21.90;99.90
22635;DHT22;11484;50.858;4.384;2022-08-19T06:44:07;22.00;99.90
22635;DHT22;11484;50.858;4.384;2022-08-19T06:46:33;22.20;99.90
22635;DHT22;11484;50.858;4.384;2022-08-19T06:48:59;22.40;99.90
22635;DHT22;11484;50.858;4.384;2022-08-19T06:51:26;22.70;99.90
22635;DHT22;11484;50.858;4.384;2022-08-19T06:53:53;22.90;99.90
22635;DHT22;11484;50.858;4.384;2022-08-19T06:56:26;23.00;99.90
22635;DHT22;11484;50.858;4.384;2022-08-19T06:58:57;22.90;99.90
22635;DHT22;11484;50.858;4.384;2022-08-19T07:01:23;23.00;99.90
22635;DHT22;11484;50.858;4.384;2022-08-19T07:03:49;23.20;99.90
22635;DHT22;11484;50.858;4.384;2022-08-19T07:06:17;23.20;99.90
22635;DHT22;11484;50.858;4.384;2022-08-19T07:08:47;23.20;99.90
22635;DHT22;11484;50.858;4.384;2022-08-19T07:11:15;23.10;99.90
22635;DHT22;11484;50.858;4.384;2022-08-19T07:13:43;22.90;99.90
22635;DHT22;11484;50.858;4.384;2022-08-19T07:16:16;22.90;99.90
22635;DHT22;11484;50.858;4.384;2022-08-19T07:18:47;22.90;99.90
22635;DHT22;11484;50.858;4.384;2022-08-19T07:21:17;22.90;99.90
22635;DHT22;11484;50.858;4.384;2022-08-19T07:23:50;23.00;99.90
22635;DHT22;11484;50.858;4.384;2022-08-19T07:26:26;23.10;99.90
22635;DHT22;11484;50.858;4.384;2022-08-19T07:28:53;23.30;99.90
22635;DHT22;11484;50.858;4.384;2022-08-19T07:31:22;23.30;99.90
22635;DHT22;11484;50.858;4.384;2022-08-19T07:33:50;23.30;99.90
22635;DHT22;11484;50.858;4.384;2022-08-19T07:36:19;23.40;99.90
22635;DHT22;11484;50.858;4.384;2022-08-19T07:38:47;23.40;99.90
22635;DHT22;11484;50.858;4.384;2022-08-19T07:41:19;23.40;99.90
22635;DHT22;11484;50.858;4.384;2022-08-19T07:43:45;23.40;99.90
22635;DHT22;11484;50.858;4.384;2022-08-19T07:46:11;23.50;99.90
22635;DHT22;11484;50.858;4.384;2022-08-19T07:48:41;23.80;99.90
22635;DHT22;11484;50.858;4.384;2022-08-19T07:51:09;23.80;99.90
22635;DHT22;11484;50.858;4.384;2022-08-19T07:53:36;23.80;99.90
22635;DHT22;11484;50.858;4.384;2022-08-19T07:56:03;23.90;99.90
22635;DHT22;11484;50.858;4.384;2022-08-19T07:58:31;24.50;99.90
22635;DHT22;11484;50.858;4.384;2022-08-19T08:00:58;25.00;99.90
22635;DHT22;11484;50.858;4.384;2022-08-19T08:03:25;24.90;99.90
22635;DHT22;11484;50.858;4.384;2022-08-19T08:06:18;24.70;99.90
22635;DHT22;11484;50.858;4.384;2022-08-19T08:09:04;24.30;99.90
22635;DHT22;11484;50.858;4.384;2022-08-19T08:11:53;24.20;99.90
22635;DHT22;11484;50.858;4.384;2022-08-19T08:14:26;24.20;99.90
22635;DHT22;11484;50.858;4.384;2022-08-19T08:16:52;24.40;99.90
22635;DHT22;11484;50.858;4.384;2022-08-19T08:19:24;24.70;99.90
22635;DHT22;11484;50.858;4.384;2022-08-19T08:21:54;25.20;99.90
22635;DHT22;11484;50.858;4.384;2022-08-19T08:24:20;25.60;99.90
22635;DHT22;11484;50.858;4.384;2022-08-19T08:26:46;25.50;99.90
22635;DHT22;11484;50.858;4.384;2022-08-19T08:29:13;25.60;99.90
22635;DHT22;11484;50.858;4.384;2022-08-19T08:31:43;25.50;99.90
22635;DHT22;11484;50.858;4.384;2022-08-19T08:34:12;25.20;99.90
22635;DHT22;11484;50.858;4.384;2022-08-19T08:36:39;25.10;99.90
22635;DHT22;11484;50.858;4.384;2022-08-19T08:39:12;25.00;99.90
22635;DHT22;11484;50.858;4.384;2022-08-19T08:44:58;24.90;99.90
22635;DHT22;11484;50.858;4.384;2022-08-19T08:47:25;25.10;99.90
22635;DHT22;11484;50.858;4.384;2022-08-19T08:50:02;25.00;99.90
22635;DHT22;11484;50.858;4.384;2022-08-19T08:52:35;24.90;99.90
22635;DHT22;11484;50.858;4.384;2022-08-19T08:55:07;24.80;99.90
22635;DHT22;11484;50.858;4.384;2022-08-19T09:00:26;24.40;99.90
22635;DHT22;11484;50.858;4.384;2022-08-19T09:02:55;24.30;99.90
22635;DHT22;11484;50.858;4.384;2022-08-19T09:09:05;24.00;99.90
22635;DHT22;11484;50.858;4.384;2022-08-19T09:11:50;24.00;99.90
22635;DHT22;11484;50.858;4.384;2022-08-19T09:14:47;24.00;99.90
22635;DHT22;11484;50.858;4.384;2022-08-19T09:17:14;24.00;99.90
22635;DHT22;11484;50.858;4.384;2022-08-19T09:20:00;24.10;99.90
22635;DHT22;11484;50.858;4.384;2022-08-19T09:22:30;24.20;99.90
22635;DHT22;11484;50.858;4.384;2022-08-19T09:24:56;24.30;99.90
22635;DHT22;11484;50.858;4.384;2022-08-19T09:27:24;24.40;99.90
22635;DHT22;11484;50.858;4.384;2022-08-19T09:29:51;24.50;99.90
22635;DHT22;11484;50.858;4.384;2022-08-19T09:32:17;24.60;99.90
22635;DHT22;11484;50.858;4.384;2022-08-19T09:34:43;24.70;99.90
22635;DHT22;11484;50.858;4.384;2022-08-19T09:37:09;24.60;99.90
22635;DHT22;11484;50.858;4.384;2022-08-19T09:39:35;24.60;99.90
22635;DHT22;11484;50.858;4.384;2022-08-19T09:42:00;24.40;99.90
22635;DHT22;11484;50.858;4.384;2022-08-19T09:44:29;24.30;99.90
22635;DHT22;11484;50.858;4.384;2022-08-19T09:46:56;24.40;99.90
22635;DHT22;11484;50.858;4.384;2022-08-19T09:49:21;24.50;99.90
22635;DHT22;11484;50.858;4.384;2022-08-19T09:51:51;24.50;99.90
22635;DHT22;11484;50.858;4.384;2022-08-19T09:54:19;24.60;99.90
22635;DHT22;11484;50.858;4.384;2022-08-19T09:56:44;24.60;99.90
22635;DHT22;11484;50.858;4.384;2022-08-19T09:59:10;24.60;99.90
22635;DHT22;11484;50.858;4.384;2022-08-19T10:01:38;24.60;99.90
22635;DHT22;11484;50.858;4.384;2022-08-19T10:04:04;24.60;99.90
22635;DHT22;11484;50.858;4.384;2022-08-19T10:06:39;24.80;99.90
22635;DHT22;11484;50.858;4.384;2022-08-19T10:09:08;24.70;99.90
22635;DHT22;11484;50.858;4.384;2022-08-19T10:11:36;24.60;99.90
22635;DHT22;11484;50.858;4.384;2022-08-19T10:14:03;24.80;99.90
22635;DHT22;11484;50.858;4.384;2022-08-19T10:16:31;24.90;99.90
22635;DHT22;11484;50.858;4.384;2022-08-19T10:18:57;24.80;99.90
22635;DHT22;11484;50.858;4.384;2022-08-19T10:21:29;24.70;99.90
22635;DHT22;11484;50.858;4.384;2022-08-19T10:23:57;24.50;99.90
22635;DHT22;11484;50.858;4.384;2022-08-19T10:26:28;24.40;99.90
22635;DHT22;11484;50.858;4.384;2022-08-19T10:28:55;24.40;99.90
22635;DHT22;11484;50.858;4.384;2022-08-19T10:31:28;24.40;99.90
22635;DHT22;11484;50.858;4.384;2022-08-19T10:33:55;24.50;99.90
22635;DHT22;11484;50.858;4.384;2022-08-19T10:36:30;24.60;99.90
22635;DHT22;11484;50.858;4.384;2022-08-19T10:38:58;24.50;99.90
22635;DHT22;11484;50.858;4.384;2022-08-19T10:41:28;24.50;99.90
22635;DHT22;11484;50.858;4.384;2022-08-19T10:43:57;24.60;99.90
22635;DHT22;11484;50.858;4.384;2022-08-19T10:46:24;24.80;99.90
22635;DHT22;11484;50.858;4.384;2022-08-19T10:48:51;24.90;99.90
22635;DHT22;11484;50.858;4.384;2022-08-19T10:51:17;24.80;99.90
22635;DHT22;11484;50.858;4.384;2022-08-19T10:54:02;24.80;99.90
22635;DHT22;11484;50.858;4.384;2022-08-19T10:56:29;24.90;99.90
22635;DHT22;11484;50.858;4.384;2022-08-19T10:59:26;24.90;99.90
22635;DHT22;11484;50.858;4.384;2022-08-19T11:01:54;25.00;99.90
22635;DHT22;11484;50.858;4.384;2022-08-19T11:04:23;25.00;99.90
22635;DHT22;11484;50.858;4.384;2022-08-19T11:06:49;24.80;99.90
22635;DHT22;11484;50.858;4.384;2022-08-19T11:09:17;24.60;99.90
22635;DHT22;11484;50.858;4.384;2022-08-19T11:11:43;24.50;99.90
22635;DHT22;11484;50.858;4.384;2022-08-19T11:14:14;24.50;99.90
22635;DHT22;11484;50.858;4.384;2022-08-19T11:16:41;24.70;99.90
22635;DHT22;11484;50.858;4.384;2022-08-19T11:19:11;24.70;99.90
22635;DHT22;11484;50.858;4.384;2022-08-19T11:21:41;24.80;99.90
22635;DHT22;11484;50.858;4.384;2022-08-19T11:24:11;24.90;99.90
22635;DHT22;11484;50.858;4.384;2022-08-19T11:26:38;25.10;99.90
22635;DHT22;11484;50.858;4.384;2022-08-19T11:29:05;25.30;99.90
22635;DHT22;11484;50.858;4.384;2022-08-19T11:31:34;25.40;99.90
22635;DHT22;11484;50.858;4.384;2022-08-19T11:34:03;25.60;99.90
22635;DHT22;11484;50.858;4.384;2022-08-19T11:36:30;25.50;99.90
22635;DHT22;11484;50.858;4.384;2022-08-19T11:38:58;25.30;99.90
22635;DHT22;11484;50.858;4.384;2022-08-19T11:41:24;25.10;99.90
22635;DHT22;11484;50.858;4.384;2022-08-19T11:43:51;25.00;99.90
22635;DHT22;11484;50.858;4.384;2022-08-19T11:46:20;25.00;99.90
22635;DHT22;11484;50.858;4.384;2022-08-19T11:48:46;25.10;99.90
22635;DHT22;11484;50.858;4.384;2022-08-19T11:51:18;25.30;99.90
22635;DHT22;11484;50.858;4.384;2022-08-19T11:53:44;25.50;99.90
22635;DHT22;11484;50.858;4.384;2022-08-19T11:56:12;25.60;99.90
22635;DHT22;11484;50.858;4.384;2022-08-19T11:58:38;25.70;99.90
22635;DHT22;11484;50.858;4.384;2022-08-19T12:01:08;25.60;99.90
22635;DHT22;11484;50.858;4.384;2022-08-19T12:03:35;25.60;99.90
22635;DHT22;11484;50.858;4.384;2022-08-19T12:06:06;25.90;99.90
22635;DHT22;11484;50.858;4.384;2022-08-19T12:08:32;26.20;99.90
22635;DHT22;11484;50.858;4.384;2022-08-19T12:10:58;26.50;99.90
22635;DHT22;11484;50.858;4.384;2022-08-19T12:13:27;26.70;99.90
22635;DHT22;11484;50.858;4.384;2022-08-19T12:15:54;26.80;99.50
22635;DHT22;11484;50.858;4.384;2022-08-19T12:18:20;26.90;99.30
22635;DHT22;11484;50.858;4.384;2022-08-19T12:20:46;27.20;98.50
22635;DHT22;11484;50.858;4.384;2022-08-19T12:23:14;27.40;97.80
22635;DHT22;11484;50.858;4.384;2022-08-19T12:25:48;27.60;97.20
22635;DHT22;11484;50.858;4.384;2022-08-19T12:28:22;27.70;96.50
22635;DHT22;11484;50.858;4.384;2022-08-19T12:30:49;27.70;96.50
22635;DHT22;11484;50.858;4.384;2022-08-19T12:33:19;27.60;96.40
22635;DHT22;11484;50.858;4.384;2022-08-19T12:35:49;27.40;96.50
22635;DHT22;11484;50.858;4.384;2022-08-19T12:38:16;27.20;96.90
22635;DHT22;11484;50.858;4.384;2022-08-19T12:40:44;27.30;96.70
22635;DHT22;11484;50.858;4.384;2022-08-19T12:43:10;27.30;96.60
22635;DHT22;11484;50.858;4.384;2022-08-19T12:45:37;27.40;96.30
22635;DHT22;11484;50.858;4.384;2022-08-19T12:48:03;27.50;96.00
22635;DHT22;11484;50.858;4.384;2022-08-19T12:50:30;27.40;96.00
22635;DHT22;11484;50.858;4.384;2022-08-19T12:52:57;27.50;96.10
22635;DHT22;11484;50.858;4.384;2022-08-19T12:55:23;27.40;96.30
22635;DHT22;11484;50.858;4.384;2022-08-19T12:57:50;27.40;96.40
22635;DHT22;11484;50.858;4.384;2022-08-19T13:00:19;27.50;96.20
22635;DHT22;11484;50.858;4.384;2022-08-19T13:02:48;27.50;95.80
22635;DHT22;11484;50.858;4.384;2022-08-19T13:05:22;27.70;95.70
22635;DHT22;11484;50.858;4.384;2022-08-19T13:07:50;27.80;95.30
22635;DHT22;11484;50.858;4.384;2022-08-19T13:10:18;27.90;95.10
22635;DHT22;11484;50.858;4.384;2022-08-19T13:12:46;28.00;94.80
22635;DHT22;11484;50.858;4.384;2022-08-19T13:15:14;28.00;94.50
22635;DHT22;11484;50.858;4.384;2022-08-19T13:17:40;27.90;94.40
22635;DHT22;11484;50.858;4.384;2022-08-19T13:20:09;27.70;94.30
22635;DHT22;11484;50.858;4.384;2022-08-19T13:23:02;27.60;94.80
22635;DHT22;11484;50.858;4.384;2022-08-19T13:25:29;27.60;94.90
22635;DHT22;11484;50.858;4.384;2022-08-19T13:27:55;27.60;94.70
22635;DHT22;11484;50.858;4.384;2022-08-19T13:30:21;27.60;94.80
22635;DHT22;11484;50.858;4.384;2022-08-19T13:33:06;27.60;94.90
22635;DHT22;11484;50.858;4.384;2022-08-19T13:35:49;27.40;94.90
22635;DHT22;11484;50.858;4.384;2022-08-19T13:38:20;27.50;95.10
22635;DHT22;11484;50.858;4.384;2022-08-19T13:40:48;27.40;95.20
22635;DHT22;11484;50.858;4.384;2022-08-19T13:43:16;27.40;95.30
22635;DHT22;11484;50.858;4.384;2022-08-19T13:45:43;27.40;95.10
22635;DHT22;11484;50.858;4.384;2022-08-19T13:48:10;27.20;95.40
22635;DHT22;11484;50.858;4.384;2022-08-19T13:50:44;27.10;95.60
22635;DHT22;11484;50.858;4.384;2022-08-19T13:53:11;27.10;95.50
22635;DHT22;11484;50.858;4.384;2022-08-19T13:55:41;27.00;95.80
22635;DHT22;11484;50.858;4.384;2022-08-19T13:58:08;27.00;96.20
22635;DHT22;11484;50.858;4.384;2022-08-19T14:00:39;27.00;96.20
22635;DHT22;11484;50.858;4.384;2022-08-19T14:03:05;27.10;96.00
22635;DHT22;11484;50.858;4.384;2022-08-19T14:05:33;27.20;96.10
22635;DHT22;11484;50.858;4.384;2022-08-19T14:07:59;27.30;95.70
22635;DHT22;11484;50.858;4.384;2022-08-19T14:10:26;27.30;95.80
22635;DHT22;11484;50.858;4.384;2022-08-19T14:12:56;27.20;97.10
22635;DHT22;11484;50.858;4.384;2022-08-19T14:15:24;27.00;98.00
22635;DHT22;11484;50.858;4.384;2022-08-19T14:17:50;26.80;98.20
22635;DHT22;11484;50.858;4.384;2022-08-19T14:20:16;26.40;99.50
22635;DHT22;11484;50.858;4.384;2022-08-19T14:22:42;26.00;99.90
22635;DHT22;11484;50.858;4.384;2022-08-19T14:25:15;25.70;99.90
22635;DHT22;11484;50.858;4.384;2022-08-19T14:27:41;25.50;99.90
22635;DHT22;11484;50.858;4.384;2022-08-19T14:30:10;25.40;99.90
22635;DHT22;11484;50.858;4.384;2022-08-19T14:32:36;25.40;99.90
22635;DHT22;11484;50.858;4.384;2022-08-19T14:35:03;25.60;99.90
22635;DHT22;11484;50.858;4.384;2022-08-19T14:37:29;25.60;99.90
22635;DHT22;11484;50.858;4.384;2022-08-19T14:39:55;25.60;99.90
22635;DHT22;11484;50.858;4.384;2022-08-19T14:42:21;25.60;99.90
22635;DHT22;11484;50.858;4.384;2022-08-19T14:44:47;25.50;99.90
22635;DHT22;11484;50.858;4.384;2022-08-19T14:47:12;25.40;99.90
22635;DHT22;11484;50.858;4.384;2022-08-19T14:49:38;25.30;99.90
22635;DHT22;11484;50.858;4.384;2022-08-19T14:52:05;25.20;99.90
22635;DHT22;11484;50.858;4.384;2022-08-19T14:54:31;25.20;99.90
22635;DHT22;11484;50.858;4.384;2022-08-19T14:56:57;25.10;99.90
22635;DHT22;11484;50.858;4.384;2022-08-19T14:59:22;25.10;99.90
22635;DHT22;11484;50.858;4.384;2022-08-19T15:01:48;25.20;99.90
22635;DHT22;11484;50.858;4.384;2022-08-19T15:04:14;25.40;99.90
22635;DHT22;11484;50.858;4.384;2022-08-19T15:06:39;25.60;99.90
22635;DHT22;11484;50.858;4.384;2022-08-19T15:09:08;25.50;99.90
22635;DHT22;11484;50.858;4.384;2022-08-19T15:11:34;25.40;99.90
22635;DHT22;11484;50.858;4.384;2022-08-19T15:14:00;25.40;99.90
22635;DHT22;11484;50.858;4.384;2022-08-19T15:16:27;25.40;99.90
22635;DHT22;11484;50.858;4.384;2022-08-19T15:18:55;25.40;99.90
22635;DHT22;11484;50.858;4.384;2022-08-19T15:21:22;25.40;99.90
22635;DHT22;11484;50.858;4.384;2022-08-19T15:23:49;25.50;99.90
22635;DHT22;11484;50.858;4.384;2022-08-19T15:26:16;25.60;99.90
22635;DHT22;11484;50.858;4.384;2022-08-19T15:28:43;25.60;99.90
22635;DHT22;11484;50.858;4.384;2022-08-19T15:31:09;25.60;99.90
22635;DHT22;11484;50.858;4.384;2022-08-19T15:33:36;25.60;99.90
22635;DHT22;11484;50.858;4.384;2022-08-19T15:36:05;25.70;99.90
22635;DHT22;11484;50.858;4.384;2022-08-19T15:38:32;25.70;99.90
22635;DHT22;11484;50.858;4.384;2022-08-19T15:41:00;25.70;99.90
22635;DHT22;11484;50.858;4.384;2022-08-19T15:43:47;25.70;99.90
22635;DHT22;11484;50.858;4.384;2022-08-19T15:46:18;25.60;99.90
22635;DHT22;11484;50.858;4.384;2022-08-19T15:48:46;25.60;99.90
22635;DHT22;11484;50.858;4.384;2022-08-19T15:51:12;25.60;99.90